createdAt,value
2019-01-02T05:00:59.382Z,4.10
2019-01-02T05:03:28.784Z,4.10
2019-01-02T05:05:58.262Z,4.10
2019-01-02T05:08:27.759Z,4.10
2019-01-02T05:10:57.266Z,4.10
2019-01-02T05:13:26.149Z,4.10
2019-01-02T05:15:55.661Z,4.20
2019-01-02T05:18:24.817Z,4.20
2019-01-02T05:20:54.143Z,4.20
2019-01-02T05:23:23.304Z,4.20
2019-01-02T05:25:52.133Z,4.20
2019-01-02T05:28:21.235Z,4.20
2019-01-02T05:30:50.397Z,4.20
2019-01-02T05:33:19.283Z,4.20
2019-01-02T05:35:48.752Z,4.20
2019-01-02T05:38:17.700Z,4.20
2019-01-02T05:40:46.477Z,4.10
2019-01-02T05:43:15.282Z,4.10
2019-01-02T05:45:44.144Z,4.10
2019-01-02T05:48:12.933Z,4.10
2019-01-02T05:50:41.929Z,4.10
2019-01-02T05:53:11.353Z,4.00
2019-01-02T05:55:40.504Z,4.00
2019-01-02T05:58:09.656Z,4.00
2019-01-02T06:00:39.943Z,4.00
2019-01-02T06:03:09.153Z,4.00
2019-01-02T06:05:38.222Z,4.00
2019-01-02T06:08:07.623Z,4.10
2019-01-02T06:10:36.761Z,4.10
2019-01-02T06:13:05.658Z,4.00
2019-01-02T06:15:34.601Z,4.00
2019-01-02T06:18:03.426Z,4.00
2019-01-02T06:20:32.295Z,4.00
2019-01-02T06:23:01.961Z,4.00
2019-01-02T06:25:31.440Z,3.90
2019-01-02T06:28:00.234Z,3.90
2019-01-02T06:30:29.392Z,3.90
2019-01-02T06:32:58.564Z,4.00
2019-01-02T06:35:27.786Z,3.90
2019-01-02T06:37:56.643Z,3.70
2019-01-02T06:40:25.757Z,3.50
2019-01-02T06:42:54.893Z,2.90
2019-01-02T06:45:23.832Z,2.70
2019-01-02T06:47:53.239Z,2.60
2019-01-02T06:50:26.076Z,2.50
2019-01-02T06:52:55.236Z,2.70
2019-01-02T06:55:24.390Z,2.60
2019-01-02T06:57:54.336Z,2.40
2019-01-02T07:00:34.798Z,2.40
2019-01-02T07:03:04.034Z,2.40
2019-01-02T07:05:33.437Z,2.40
2019-01-02T07:08:02.941Z,2.50
2019-01-02T07:10:31.756Z,2.70
2019-01-02T07:13:01.235Z,2.80
2019-01-02T07:15:30.441Z,2.90
2019-01-02T07:17:59.965Z,3.00
2019-01-02T07:20:29.118Z,3.00
2019-01-02T07:22:58.326Z,3.10
2019-01-02T07:25:27.227Z,3.10
2019-01-02T07:27:57.033Z,3.00
2019-01-02T07:30:26.452Z,3.00
2019-01-02T07:32:55.678Z,3.00
2019-01-02T07:36:00.800Z,3.10
2019-01-02T07:39:04.577Z,3.20
2019-01-02T07:42:23.648Z,3.10
2019-01-02T07:45:28.489Z,3.00
2019-01-02T07:48:27.882Z,2.80
2019-01-02T07:51:23.971Z,2.80
2019-01-02T07:54:30.788Z,2.80
2019-01-02T07:57:47.938Z,2.90
2019-01-02T08:00:28.437Z,3.00
2019-01-02T08:03:31.316Z,3.10
2019-01-02T08:06:43.752Z,3.10
2019-01-02T08:09:49.521Z,3.20
2019-01-02T08:12:51.080Z,3.20
2019-01-02T08:15:46.499Z,3.20
2019-01-02T08:19:08.836Z,3.30
2019-01-02T08:22:09.476Z,3.40
2019-01-02T08:25:21.877Z,3.40
2019-01-02T08:28:16.564Z,3.50
2019-01-02T08:31:22.673Z,3.50
2019-01-02T08:34:48.865Z,3.50
2019-01-02T08:37:58.464Z,3.50
2019-01-02T08:40:53.645Z,3.60
2019-01-02T08:43:55.380Z,3.60
2019-01-02T08:46:39.364Z,3.50
2019-01-02T08:49:46.125Z,3.60
2019-01-02T08:52:50.137Z,3.60
2019-01-02T08:55:50.170Z,3.60
2019-01-02T08:59:05.360Z,3.60
2019-01-02T09:02:15.158Z,3.70
2019-01-02T09:04:57.413Z,3.60
2019-01-02T09:07:56.700Z,3.60
2019-01-02T09:10:57.757Z,3.60
2019-01-02T09:14:16.992Z,3.60
2019-01-02T09:17:00.873Z,3.70
2019-01-02T09:20:12.772Z,3.70
2019-01-02T09:22:58.802Z,3.70
2019-01-02T09:25:53.173Z,3.70
2019-01-02T09:29:16.061Z,3.70
2019-01-02T09:32:25.773Z,3.70
2019-01-02T09:35:14.349Z,3.70
2019-01-02T09:38:29.476Z,3.80
2019-01-02T09:41:11.165Z,3.80
2019-01-02T09:44:12.005Z,3.70
2019-01-02T09:47:29.679Z,3.80
2019-01-02T09:50:29.392Z,3.80
2019-01-02T09:53:51.772Z,3.90
2019-01-02T09:56:50.115Z,3.80
2019-01-02T09:59:59.386Z,3.90
2019-01-02T10:03:11.409Z,3.80
2019-01-02T10:06:27.478Z,3.80
2019-01-02T10:09:40.048Z,3.90
2019-01-02T10:12:35.372Z,3.90
2019-01-02T10:15:53.556Z,3.90
2019-01-02T10:18:42.740Z,3.90
2019-01-02T10:22:06.323Z,3.90
2019-01-02T10:25:11.453Z,3.90
2019-01-02T10:28:19.368Z,3.80
2019-01-02T10:31:26.906Z,3.80
2019-01-02T10:34:24.961Z,3.80
2019-01-02T10:37:39.583Z,3.80
